createdAt,value
2018-09-17T00:01:12.323Z,14.30
2018-09-17T00:03:40.602Z,14.30
2018-09-17T00:06:08.847Z,14.20
2018-09-17T00:08:37.074Z,14.20
2018-09-17T00:11:05.330Z,14.20
2018-09-17T00:13:33.567Z,14.30
2018-09-17T00:16:01.838Z,14.20
2018-09-17T00:18:30.173Z,14.20
2018-09-17T00:20:58.443Z,14.20
2018-09-17T00:23:26.725Z,14.10
2018-09-17T00:25:55.003Z,14.00
2018-09-17T00:28:23.275Z,14.00
2018-09-17T00:30:51.577Z,14.00
2018-09-17T00:33:19.839Z,14.00
2018-09-17T00:35:48.173Z,13.80
2018-09-17T00:38:16.390Z,14.00
2018-09-17T00:40:44.663Z,14.00
2018-09-17T00:43:12.947Z,13.90
2018-09-17T00:45:41.211Z,13.80
2018-09-17T00:48:09.445Z,13.80
2018-09-17T00:50:37.999Z,13.80
2018-09-17T00:53:06.226Z,13.80
2018-09-17T00:55:34.489Z,13.80
2018-09-17T00:58:02.728Z,13.70
2018-09-17T01:00:30.974Z,13.60
2018-09-17T01:02:59.258Z,13.60
2018-09-17T01:05:27.529Z,13.60
2018-09-17T01:07:55.780Z,13.50
2018-09-17T01:10:24.045Z,13.40
2018-09-17T01:12:52.287Z,13.40
2018-09-17T01:15:20.545Z,13.30
2018-09-17T01:17:48.762Z,13.40
2018-09-17T01:20:17.127Z,13.40
2018-09-17T01:22:45.403Z,13.50
2018-09-17T01:25:13.655Z,13.80
2018-09-17T01:27:41.950Z,13.70
2018-09-17T01:30:10.207Z,13.60
2018-09-17T01:32:38.506Z,13.60
2018-09-17T01:35:06.784Z,13.50
2018-09-17T01:37:35.128Z,13.40
2018-09-17T01:40:03.400Z,13.40
2018-09-17T01:42:31.671Z,13.30
2018-09-17T01:44:59.927Z,13.20
2018-09-17T01:47:28.239Z,13.20
2018-09-17T01:49:56.455Z,13.30
2018-09-17T01:52:24.730Z,13.30
2018-09-17T01:54:52.979Z,13.30
2018-09-17T01:57:21.214Z,13.10
2018-09-17T01:59:49.451Z,13.20
2018-09-17T02:02:17.715Z,13.30
2018-09-17T02:04:45.977Z,13.20
2018-09-17T02:07:14.199Z,13.10
2018-09-17T02:09:42.523Z,13.00
2018-09-17T02:12:12.263Z,13.00
2018-09-17T02:14:41.259Z,13.00
2018-09-17T02:17:09.509Z,13.00
2018-09-17T02:19:38.319Z,13.00
2018-09-17T02:22:06.889Z,12.90
2018-09-17T02:24:35.153Z,12.90
2018-09-17T02:27:03.467Z,12.90
2018-09-17T02:29:31.724Z,12.90
2018-09-17T02:31:59.980Z,12.80
2018-09-17T02:34:34.785Z,12.90
2018-09-17T02:37:08.499Z,12.90
2018-09-17T02:39:38.367Z,12.80
2018-09-17T02:42:08.759Z,12.70
2018-09-17T02:44:37.489Z,12.80
2018-09-17T02:47:05.969Z,12.70
2018-09-17T02:49:34.255Z,12.80
2018-09-17T02:52:02.607Z,12.70
2018-09-17T02:54:30.938Z,12.70
2018-09-17T02:56:59.203Z,12.70
2018-09-17T02:59:27.478Z,12.70
2018-09-17T03:01:55.866Z,12.70
2018-09-17T03:04:24.115Z,12.70
2018-09-17T03:06:52.411Z,12.70
2018-09-17T03:09:20.662Z,12.50
2018-09-17T03:11:48.981Z,12.60
2018-09-17T03:14:21.183Z,12.60
2018-09-17T03:17:00.861Z,12.60
2018-09-17T03:19:29.156Z,12.60
2018-09-17T03:21:57.407Z,12.60
2018-09-17T03:24:25.741Z,12.60
2018-09-17T03:26:53.911Z,12.60
2018-09-17T03:29:22.179Z,12.50
2018-09-17T03:31:50.454Z,12.50
2018-09-17T03:34:18.710Z,12.40
2018-09-17T03:36:46.999Z,12.40
2018-09-17T03:39:15.257Z,12.50
2018-09-17T03:41:43.526Z,12.50
2018-09-17T03:44:11.789Z,12.40
2018-09-17T03:46:40.088Z,12.30
2018-09-17T03:49:08.310Z,12.40
2018-09-17T03:51:36.563Z,12.40
2018-09-17T03:54:04.797Z,12.40
2018-09-17T03:56:33.127Z,12.50
2018-09-17T03:59:01.448Z,12.50
2018-09-17T04:01:29.699Z,12.40
2018-09-17T04:03:58.071Z,12.30
2018-09-17T04:06:26.310Z,12.30
2018-09-17T04:08:54.576Z,12.30
2018-09-17T04:11:22.863Z,12.30
2018-09-17T04:13:51.144Z,12.30
2018-09-17T04:16:19.419Z,12.20
2018-09-17T04:18:47.720Z,12.20
2018-09-17T04:21:16.007Z,12.10
2018-09-17T04:23:44.294Z,12.00
2018-09-17T04:26:13.087Z,11.90
2018-09-17T04:28:41.451Z,12.00
2018-09-17T04:31:09.716Z,11.90
2018-09-17T04:33:39.491Z,12.00
2018-09-17T04:36:08.238Z,11.90
2018-09-17T04:38:36.490Z,11.80
2018-09-17T04:41:04.895Z,11.80
2018-09-17T04:43:33.148Z,11.80
2018-09-17T04:46:01.415Z,11.80
2018-09-17T04:48:30.138Z,11.70
2018-09-17T04:50:58.423Z,11.80
2018-09-17T04:53:26.729Z,11.80
2018-09-17T04:55:55.031Z,11.90
2018-09-17T04:58:23.287Z,11.80
2018-09-17T05:00:51.560Z,11.80
2018-09-17T05:03:19.878Z,11.80
2018-09-17T05:05:48.125Z,11.90
2018-09-17T05:08:16.375Z,11.90
2018-09-17T05:10:44.583Z,12.00
2018-09-17T05:13:12.872Z,11.90
2018-09-17T05:15:41.032Z,11.90
2018-09-17T05:18:09.295Z,11.90
2018-09-17T05:20:37.656Z,12.00
2018-09-17T05:23:05.866Z,12.00
2018-09-17T05:25:34.145Z,12.00
2018-09-17T05:28:02.400Z,12.00
2018-09-17T05:30:30.675Z,12.10
2018-09-17T05:32:58.982Z,12.10
2018-09-17T05:35:27.286Z,12.10
2018-09-17T05:37:55.530Z,12.20
2018-09-17T05:40:23.842Z,12.30
2018-09-17T05:42:52.165Z,12.30
2018-09-17T05:45:20.409Z,12.30
2018-09-17T05:47:48.735Z,12.40
2018-09-17T05:50:17.006Z,12.30
2018-09-17T05:52:45.291Z,12.30
2018-09-17T05:55:13.554Z,12.40
2018-09-17T05:57:41.847Z,12.40
2018-09-17T06:00:10.830Z,12.50
2018-09-17T06:02:39.131Z,12.40
2018-09-17T06:05:07.441Z,12.40
2018-09-17T06:07:35.679Z,12.60
2018-09-17T06:10:08.222Z,12.60
2018-09-17T06:12:36.548Z,12.70
2018-09-17T06:15:05.211Z,12.80
2018-09-17T06:17:33.612Z,12.90
2018-09-17T06:20:01.803Z,13.00
2018-09-17T06:22:30.039Z,13.00
2018-09-17T06:24:58.314Z,13.00
2018-09-17T06:27:26.543Z,13.10
2018-09-17T06:29:54.816Z,13.20
2018-09-17T06:32:23.056Z,13.20
2018-09-17T06:34:51.337Z,13.30
2018-09-17T06:37:19.659Z,13.30
2018-09-17T06:39:47.948Z,13.40
2018-09-17T06:42:16.242Z,13.60
2018-09-17T06:44:44.588Z,13.60
2018-09-17T06:47:13.180Z,13.70
2018-09-17T06:49:41.572Z,13.80
2018-09-17T06:52:09.966Z,13.90
2018-09-17T06:54:38.307Z,14.50
2018-09-17T06:57:06.654Z,14.70
2018-09-17T06:59:34.927Z,14.70
2018-09-17T07:02:03.206Z,14.70
2018-09-17T07:04:31.635Z,14.70
2018-09-17T07:06:59.947Z,14.80
2018-09-17T07:09:28.243Z,15.00
2018-09-17T07:11:56.602Z,15.40
2018-09-17T07:14:24.904Z,15.60
2018-09-17T07:16:53.171Z,15.50
2018-09-17T07:19:21.465Z,15.50
2018-09-17T07:21:49.822Z,15.70
2018-09-17T07:24:18.079Z,15.90
2018-09-17T07:26:46.354Z,16.00
2018-09-17T07:29:17.231Z,16.20
2018-09-17T07:31:45.620Z,16.30
2018-09-17T07:34:13.847Z,16.50
2018-09-17T07:36:42.157Z,16.60
2018-09-17T07:39:11.638Z,16.80
2018-09-17T07:41:40.029Z,16.80
2018-09-17T07:44:08.936Z,16.80
2018-09-17T07:46:37.428Z,16.90
2018-09-17T07:49:05.732Z,17.10
2018-09-17T07:51:34.023Z,17.20
2018-09-17T07:54:02.285Z,17.10
2018-09-17T07:56:30.632Z,17.30
2018-09-17T07:58:59.013Z,17.60
2018-09-17T08:01:30.257Z,17.80
2018-09-17T08:04:07.101Z,17.90
2018-09-17T08:06:36.104Z,18.00
2018-09-17T08:09:12.391Z,18.20
2018-09-17T08:11:41.328Z,18.20
2018-09-17T08:14:09.595Z,18.20
2018-09-17T08:16:37.850Z,18.40
2018-09-17T08:19:06.134Z,18.60
2018-09-17T08:21:34.490Z,18.70
2018-09-17T08:24:02.747Z,18.70
2018-09-17T08:26:31.010Z,18.60
2018-09-17T08:28:59.261Z,18.90
2018-09-17T08:31:27.539Z,19.20
2018-09-17T08:33:56.618Z,19.20
2018-09-17T08:36:25.184Z,19.20
2018-09-17T08:38:53.527Z,19.30
2018-09-17T08:41:21.998Z,19.40
2018-09-17T08:43:50.295Z,19.50
2018-09-17T08:46:18.619Z,19.80
2018-09-17T08:48:46.895Z,19.70
2018-09-17T08:51:15.294Z,19.70
2018-09-17T08:53:43.715Z,19.70
2018-09-17T08:56:17.331Z,19.80
2018-09-17T08:58:50.930Z,20.30
2018-09-17T09:01:24.462Z,20.40
2018-09-17T09:03:58.191Z,20.50
2018-09-17T09:06:33.676Z,20.70
2018-09-17T09:09:02.464Z,20.90
2018-09-17T09:11:36.181Z,21.10
2018-09-17T09:14:07.435Z,21.10
2018-09-17T09:16:36.065Z,21.40
2018-09-17T09:19:04.449Z,20.90
2018-09-17T09:21:32.775Z,21.00
2018-09-17T09:24:01.093Z,21.20
2018-09-17T09:26:32.492Z,21.30
2018-09-17T09:29:01.895Z,21.40
2018-09-17T09:31:30.703Z,21.60
2018-09-17T09:34:00.725Z,21.80
2018-09-17T09:36:29.404Z,22.20
2018-09-17T09:38:59.580Z,22.00
2018-09-17T09:41:39.008Z,22.20
2018-09-17T09:44:10.729Z,22.60
2018-09-17T09:46:40.029Z,22.60
2018-09-17T09:49:08.635Z,22.70
2018-09-17T09:51:37.044Z,22.70
2018-09-17T09:54:05.545Z,22.50
2018-09-17T09:56:33.885Z,22.30
2018-09-17T09:59:02.328Z,22.30
2018-09-17T10:01:37.046Z,22.50
2018-09-17T10:04:10.863Z,22.50
2018-09-17T10:06:39.195Z,22.40
2018-09-17T10:09:13.770Z,22.70
2018-09-17T10:11:47.831Z,22.80
2018-09-17T10:14:21.568Z,22.80
2018-09-17T10:16:55.561Z,23.10
2018-09-17T10:19:25.264Z,23.30
2018-09-17T10:21:53.667Z,23.30
2018-09-17T10:24:22.223Z,23.70
2018-09-17T10:26:50.554Z,23.80
2018-09-17T10:29:19.589Z,23.80
2018-09-17T10:31:48.035Z,23.70
2018-09-17T10:34:16.402Z,23.90
2018-09-17T10:36:44.858Z,24.20
2018-09-17T10:42:05.968Z,24.60
2018-09-17T10:44:35.147Z,24.60
2018-09-17T10:47:05.210Z,24.80
2018-09-17T10:49:34.347Z,25.10
2018-09-17T10:52:02.824Z,25.00
2018-09-17T10:54:33.560Z,25.00
2018-09-17T10:57:02.577Z,25.10
2018-09-17T10:59:31.002Z,25.40
2018-09-17T11:02:00.184Z,25.30
2018-09-17T11:04:29.511Z,24.90
2018-09-17T11:07:01.879Z,25.20
2018-09-17T11:09:35.040Z,25.30
2018-09-17T11:12:25.717Z,25.50
2018-09-17T11:16:20.390Z,25.50
2018-09-17T11:21:05.598Z,25.60
2018-09-17T11:23:35.821Z,25.70
2018-09-17T11:26:07.841Z,25.50
2018-09-17T11:28:40.221Z,25.60
2018-09-17T11:31:09.096Z,25.70
2018-09-17T11:33:38.645Z,25.90
2018-09-17T11:36:09.790Z,25.70
2018-09-17T11:38:38.951Z,26.00
2018-09-17T11:41:14.760Z,26.00
2018-09-17T11:43:50.279Z,26.10
2018-09-17T11:46:25.019Z,26.00
2018-09-17T11:48:54.707Z,26.40
2018-09-17T11:51:23.943Z,26.50
2018-09-17T11:53:52.613Z,26.50
2018-09-17T11:56:21.011Z,26.40
2018-09-17T11:58:49.405Z,26.40
2018-09-17T12:01:23.051Z,26.30
2018-09-17T12:03:56.728Z,26.50
2018-09-17T12:06:30.418Z,26.60
2018-09-17T12:08:58.683Z,26.90
2018-09-17T12:11:27.074Z,26.80
2018-09-17T12:13:55.351Z,26.60
2018-09-17T12:16:24.001Z,26.90
2018-09-17T12:18:52.533Z,26.80
2018-09-17T12:21:20.958Z,26.40
2018-09-17T12:23:49.493Z,26.30
2018-09-17T12:26:18.467Z,26.60
2018-09-17T12:28:47.051Z,26.80
2018-09-17T12:31:21.067Z,26.70
2018-09-17T12:33:49.987Z,26.80
2018-09-17T12:36:20.264Z,26.90
2018-09-17T12:38:51.046Z,26.80
2018-09-17T12:41:19.589Z,27.10
2018-09-17T12:43:48.002Z,27.00
2018-09-17T12:46:16.323Z,27.00
2018-09-17T12:48:44.914Z,26.80
2018-09-17T12:51:19.035Z,27.00
2018-09-17T12:53:47.362Z,27.20
2018-09-17T12:56:15.652Z,27.20
2018-09-17T12:58:43.972Z,27.30
2018-09-17T13:01:12.273Z,27.20
2018-09-17T13:03:40.551Z,27.00
2018-09-17T13:06:08.911Z,27.20
2018-09-17T13:08:37.219Z,27.60
2018-09-17T13:11:05.533Z,27.70
2018-09-17T13:13:33.842Z,27.70
2018-09-17T13:16:02.144Z,28.10
2018-09-17T13:18:30.395Z,27.90
2018-09-17T13:20:58.656Z,27.80
2018-09-17T13:23:27.048Z,27.80
2018-09-17T13:25:55.399Z,27.90
2018-09-17T13:28:23.831Z,28.00
2018-09-17T13:30:52.127Z,28.00
2018-09-17T13:33:20.481Z,28.20
2018-09-17T13:35:48.781Z,28.40
2018-09-17T13:38:17.060Z,28.30
2018-09-17T13:40:45.405Z,28.20
2018-09-17T13:43:28.415Z,28.20
2018-09-17T13:45:56.775Z,28.20
2018-09-17T13:48:25.216Z,28.50
2018-09-17T13:50:53.860Z,28.60
2018-09-17T13:53:23.224Z,28.40
2018-09-17T13:55:51.559Z,28.10
2018-09-17T13:58:20.671Z,28.20
2018-09-17T14:00:51.544Z,28.40
2018-09-17T14:03:20.107Z,29.10
2018-09-17T14:05:48.407Z,29.00
2018-09-17T14:08:16.857Z,28.80
2018-09-17T14:10:45.128Z,28.90
2018-09-17T14:13:13.401Z,29.10
2018-09-17T14:15:45.885Z,29.30
2018-09-17T14:18:14.195Z,29.30
2018-09-17T14:20:42.482Z,29.00
2018-09-17T14:23:11.229Z,29.00
2018-09-17T14:25:40.009Z,29.00
2018-09-17T14:30:47.920Z,29.20
2018-09-17T14:33:23.694Z,29.30
2018-09-17T14:35:54.695Z,28.90
2018-09-17T14:38:24.056Z,29.00
2018-09-17T14:40:52.853Z,29.40
2018-09-17T14:43:23.305Z,29.50
2018-09-17T14:45:55.168Z,29.60
2018-09-17T14:48:23.877Z,29.70
2018-09-17T14:50:52.366Z,29.70
2018-09-17T14:53:20.891Z,29.80
2018-09-17T14:58:42.546Z,29.80
2018-09-17T15:01:12.922Z,29.70
2018-09-17T15:03:43.363Z,29.70
2018-09-17T15:06:11.931Z,29.70
2018-09-17T15:08:40.371Z,29.80
2018-09-17T15:11:08.682Z,29.80
2018-09-17T15:13:37.013Z,29.90
2018-09-17T15:16:06.410Z,29.60
2018-09-17T15:18:34.767Z,29.40
2018-09-17T15:21:03.485Z,29.40
2018-09-17T15:23:31.850Z,29.60
2018-09-17T15:26:00.184Z,29.40
2018-09-17T15:28:28.708Z,29.10
2018-09-17T15:30:56.963Z,29.30
2018-09-17T15:33:28.896Z,29.20
2018-09-17T15:35:59.625Z,29.20
2018-09-17T15:38:28.791Z,29.30
2018-09-17T15:40:56.973Z,29.80
2018-09-17T15:43:25.276Z,30.20
2018-09-17T15:45:53.523Z,30.60
2018-09-17T15:48:22.007Z,30.70
2018-09-17T15:50:50.324Z,30.90
2018-09-17T15:53:18.589Z,31.00
2018-09-17T15:55:46.909Z,31.00
2018-09-17T15:58:15.306Z,31.00
2018-09-17T16:00:43.561Z,31.10
2018-09-17T16:03:11.795Z,31.10
2018-09-17T16:05:40.064Z,31.10
2018-09-17T16:08:08.329Z,31.20
2018-09-17T16:10:36.604Z,31.30
2018-09-17T16:13:04.889Z,31.00
2018-09-17T16:15:33.190Z,30.90
2018-09-17T16:18:01.480Z,30.40
2018-09-17T16:20:29.738Z,30.20
2018-09-17T16:22:58.002Z,30.20
2018-09-17T16:25:26.295Z,30.10
2018-09-17T16:27:54.563Z,29.70
2018-09-17T16:30:22.861Z,29.50
2018-09-17T16:32:51.122Z,29.10
2018-09-17T16:35:19.412Z,28.90
2018-09-17T16:37:47.703Z,28.60
2018-09-17T16:40:15.999Z,28.40
2018-09-17T16:42:44.417Z,28.30
2018-09-17T16:45:12.720Z,28.10
2018-09-17T16:47:40.959Z,28.00
2018-09-17T16:50:09.260Z,27.80
2018-09-17T16:52:37.549Z,27.70
2018-09-17T16:55:05.922Z,27.60
2018-09-17T16:57:34.199Z,27.40
2018-09-17T17:00:02.558Z,27.20
2018-09-17T17:02:30.912Z,27.10
2018-09-17T17:04:59.287Z,27.00
2018-09-17T17:07:27.501Z,26.90
2018-09-17T17:09:55.827Z,26.70
2018-09-17T17:12:24.140Z,26.60
2018-09-17T17:14:52.424Z,26.50
2018-09-17T17:17:21.243Z,26.30
2018-09-17T17:19:50.076Z,26.20
2018-09-17T17:22:18.648Z,26.00
2018-09-17T17:24:46.790Z,25.80
2018-09-17T17:27:15.071Z,25.70
2018-09-17T17:29:43.427Z,25.50
2018-09-17T17:32:11.669Z,25.30
2018-09-17T17:34:39.957Z,25.20
2018-09-17T17:37:08.317Z,24.90
2018-09-17T17:39:36.705Z,24.70
2018-09-17T17:42:04.963Z,24.50
2018-09-17T17:44:33.228Z,24.30
2018-09-17T17:47:01.547Z,24.10
2018-09-17T17:49:29.833Z,23.90
2018-09-17T17:51:58.296Z,23.70
2018-09-17T17:54:26.500Z,23.50
2018-09-17T17:56:54.772Z,23.30
2018-09-17T17:59:23.162Z,23.10
2018-09-17T18:01:51.431Z,23.10
2018-09-17T18:04:19.729Z,23.00
2018-09-17T18:06:48.274Z,22.90
2018-09-17T18:09:16.436Z,22.80
2018-09-17T18:11:44.703Z,22.70
2018-09-17T18:14:13.024Z,22.60
2018-09-17T18:16:41.296Z,22.50
2018-09-17T18:19:09.535Z,22.40
2018-09-17T18:21:37.800Z,22.40
2018-09-17T18:24:07.127Z,22.30
2018-09-17T18:26:35.369Z,22.30
2018-09-17T18:29:03.596Z,22.20
2018-09-17T18:31:31.845Z,22.20
2018-09-17T18:34:00.143Z,21.90
2018-09-17T18:36:28.438Z,21.90
2018-09-17T18:38:56.729Z,21.80
2018-09-17T18:41:24.935Z,21.70
2018-09-17T18:43:53.220Z,21.60
2018-09-17T18:46:21.461Z,21.60
2018-09-17T18:48:49.700Z,21.40
2018-09-17T18:51:18.003Z,21.30
2018-09-17T18:53:46.289Z,21.30
2018-09-17T18:56:14.551Z,21.10
2018-09-17T18:58:42.773Z,21.10
2018-09-17T19:01:11.024Z,21.00
2018-09-17T19:03:39.269Z,20.90
2018-09-17T19:06:07.609Z,20.60
2018-09-17T19:08:35.887Z,20.60
2018-09-17T19:11:04.170Z,20.50
2018-09-17T19:13:32.418Z,20.50
2018-09-17T19:16:00.724Z,20.50
2018-09-17T19:18:28.936Z,20.50
2018-09-17T19:20:57.519Z,20.50
2018-09-17T19:23:30.719Z,20.50
2018-09-17T19:25:59.002Z,20.40
2018-09-17T19:28:32.595Z,20.30
2018-09-17T19:31:00.818Z,20.30
2018-09-17T19:33:29.122Z,20.30
2018-09-17T19:35:57.409Z,20.20
2018-09-17T19:38:30.843Z,20.10
2018-09-17T19:40:59.132Z,20.10
2018-09-17T19:43:27.407Z,20.00
2018-09-17T19:46:01.112Z,19.80
2018-09-17T19:48:29.416Z,19.80
2018-09-17T19:51:03.031Z,19.80
2018-09-17T19:53:31.363Z,19.70
2018-09-17T19:55:59.713Z,19.70
2018-09-17T19:58:33.392Z,19.40
2018-09-17T20:01:01.648Z,19.20
2018-09-17T20:03:30.972Z,19.00
2018-09-17T20:06:06.110Z,18.90
2018-09-17T20:08:34.572Z,18.80
2018-09-17T20:11:02.855Z,18.80
2018-09-17T20:13:31.632Z,18.80
2018-09-17T20:16:01.391Z,18.70
2018-09-17T20:18:30.823Z,18.70
2018-09-17T20:20:59.296Z,18.80
2018-09-17T20:23:27.580Z,18.80
2018-09-17T20:25:56.913Z,18.60
2018-09-17T20:28:25.583Z,18.70
2018-09-17T20:30:54.190Z,18.70
2018-09-17T20:33:25.472Z,18.70
2018-09-17T20:35:53.883Z,18.50
2018-09-17T20:38:22.295Z,18.30
2018-09-17T20:40:50.688Z,18.20
2018-09-17T20:43:19.210Z,18.10
2018-09-17T20:45:47.511Z,18.10
2018-09-17T20:48:15.891Z,18.00
2018-09-17T20:50:44.612Z,18.00
2018-09-17T20:53:12.883Z,18.00
2018-09-17T20:55:41.228Z,18.00
2018-09-17T20:58:10.415Z,17.90
2018-09-17T21:00:38.683Z,17.80
2018-09-17T21:03:06.925Z,17.70
2018-09-17T21:05:35.171Z,17.60
2018-09-17T21:08:03.439Z,17.70
2018-09-17T21:10:31.719Z,17.60
2018-09-17T21:13:00.005Z,17.50
2018-09-17T21:15:28.215Z,17.60
2018-09-17T21:17:56.457Z,17.40
2018-09-17T21:20:25.900Z,17.30
2018-09-17T21:22:54.146Z,17.40
2018-09-17T21:25:22.504Z,17.40
2018-09-17T21:27:50.630Z,17.30
2018-09-17T21:30:18.912Z,17.30
2018-09-17T21:32:47.185Z,17.40
2018-09-17T21:35:15.447Z,17.50
2018-09-17T21:37:43.655Z,17.40
2018-09-17T21:40:11.898Z,17.30
2018-09-17T21:42:40.148Z,17.30
2018-09-17T21:45:09.577Z,17.30
2018-09-17T21:47:37.859Z,17.40
2018-09-17T21:50:06.142Z,17.40
2018-09-17T21:52:34.444Z,17.20
2018-09-17T21:55:02.629Z,17.20
2018-09-17T21:57:30.851Z,17.10
2018-09-17T21:59:59.100Z,17.20
2018-09-17T22:02:27.353Z,17.10
2018-09-17T22:04:55.647Z,16.90
2018-09-17T22:07:26.520Z,16.90
2018-09-17T22:09:54.834Z,16.80
2018-09-17T22:12:23.097Z,16.80
2018-09-17T22:14:51.436Z,16.80
2018-09-17T22:17:19.834Z,16.80
2018-09-17T22:19:48.132Z,16.80
2018-09-17T22:22:16.354Z,16.70
2018-09-17T22:24:44.815Z,16.70
2018-09-17T22:27:13.047Z,16.60
2018-09-17T22:29:41.261Z,16.60
2018-09-17T22:32:09.503Z,16.60
2018-09-17T22:34:37.782Z,16.60
2018-09-17T22:37:06.651Z,16.60
2018-09-17T22:39:34.964Z,16.60
2018-09-17T22:42:03.261Z,16.60
2018-09-17T22:44:31.492Z,16.60
2018-09-17T22:46:59.825Z,16.60
2018-09-17T22:49:28.325Z,16.50
2018-09-17T22:51:56.621Z,16.40
2018-09-17T22:54:24.925Z,16.40
2018-09-17T22:56:53.179Z,16.40
2018-09-17T22:59:21.435Z,16.30
2018-09-17T23:01:49.961Z,16.20
2018-09-17T23:04:18.251Z,16.20
2018-09-17T23:06:46.517Z,16.20
2018-09-17T23:09:14.792Z,16.10
2018-09-17T23:11:43.118Z,16.20
2018-09-17T23:14:12.234Z,16.20
2018-09-17T23:16:40.541Z,16.30
2018-09-17T23:19:08.803Z,16.40
2018-09-17T23:21:37.074Z,16.40
2018-09-17T23:24:05.339Z,16.40
2018-09-17T23:26:33.693Z,16.30
2018-09-17T23:29:01.944Z,16.30
2018-09-17T23:31:30.209Z,16.40
2018-09-17T23:33:58.604Z,16.40
2018-09-17T23:36:26.853Z,16.60
2018-09-17T23:38:55.151Z,16.50
2018-09-17T23:41:23.488Z,16.50
2018-09-17T23:43:51.818Z,16.70
2018-09-17T23:46:20.160Z,16.60
2018-09-17T23:48:48.495Z,16.60
2018-09-17T23:51:16.863Z,16.50
2018-09-17T23:53:45.140Z,16.40
2018-09-17T23:56:13.433Z,16.50
2018-09-17T23:58:41.846Z,16.40
